Aviation Digital Data Service (ADDS)

Output produced by METARs form (1142 UTC 07 October 2022)
found at http://www.aviationweather.gov/metar/data/
 
VTCT 071100Z 14004KT 9999 FEW035 30/24 Q1010 NOSIG
VTCT 071000Z 10003KT 070V140 9999 SCT035 31/23 Q1009 NOSIG
VTCT 070900Z VRB03KT 9999 SCT030 31/23 Q1009 NOSIG
VTCT 070800Z VRB03KT 9999 SCT030 31/23 Q1010 NOSIG
VTCT 070700Z VRB03KT 9999 BKN025 31/24 Q1011 NOSIG
VTCT 070600Z 08004KT 040V120 9999 SCT025 30/24 Q1013 NOSIG
VTCT 070500Z 09006KT 040V140 9999 SCT020 29/24 Q1014 NOSIG
VTCT 070400Z 06006KT 020V120 9999 SCT018 28/25 Q1015 NOSIG
VTCT 070300Z 05006KT 9999 BKN015 27/24 Q1016 NOSIG
VTCT 070200Z 03003KT 320V070 9999 BKN010 26/26 Q1016 NOSIG
VTCT 070100Z 02004KT 9000 BKN005 25/25 Q1016 NOSIG
VTCT 070000Z VRB02KT 8000 BKN005 24/24 Q1015 NOSIG
VTCT 062300Z 36003KT 9999 BKN004 24/24 Q1014 NOSIG
VTCT 062200Z 09002KT 9999 BKN004 24/24 Q1014 NOSIG
VTCT 062100Z VRB02KT 9999 SCT002 24/24 Q1013 NOSIG
VTCT 062000Z VRB01KT 9999 SCT004 24/24 Q1013 NOSIG
VTCT 061900Z 35002KT CAVOK 24/24 Q1014 NOSIG
VTCT 061800Z 00000KT CAVOK 24/24 Q1015 NOSIG
VTCT 061700Z 36001KT CAVOK 24/24 Q1015 NOSIG
VTCT 061600Z 00000KT CAVOK 24/24 Q1015 NOSIG
VTCT 061500Z VRB02KT 9999 FEW040 25/25 Q1015 NOSIG
VTCT 061400Z 00000KT 9999 FEW040 25/25 Q1014 NOSIG
VTCT 061300Z 04002KT 9999 FEW040 26/25 Q1013 NOSIG
VTCT 061200Z 06004KT 9999 FEW035 27/24 Q1012 NOSIG
TAF VTCT 071100Z 0712/0818 04005KT 9999 SCT035 
     TEMPO 0719/0801 -TSRA FEW018CB BKN025